Fernando Marti, Argentina
Current Conditions -  °F | °C
As of 6:00 PM on Sunday 23 Nov 2014 (Local Time) from SAOC Reporting Station
Clear Clear  
Wind Chill: 88°   Ceiling: Unl
Heat Index: 88°   Visibility: 6mi
Dew Point: 39°   Wind: 30mph
Humidity: 18%   Direction: 360°N
Pressure: 29.56"   Gusts: 44mph
Location:  34.67°S, 63.37°W
Report Text: SAOC 232100Z 36026G38KT CAVOK 31/04 Q1001
Loading
Personal Weather Stations






























Interactive Weather Map New forecast layout! Learn more

10-Day Weather Forecast

Advertisements
Track Severe Weather on mobile